createdAt,value
2019-03-24T00:01:56.218Z,1.03
2019-03-24T00:04:27.914Z,0.90
2019-03-24T00:06:59.322Z,1.30
2019-03-24T00:09:30.550Z,0.90
2019-03-24T00:12:01.789Z,0.60
2019-03-24T00:14:32.789Z,0.80
2019-03-24T00:17:03.953Z,0.77
2019-03-24T00:19:35.218Z,0.73
2019-03-24T00:22:06.814Z,0.70
2019-03-24T00:24:37.991Z,1.10
2019-03-24T00:27:09.492Z,0.80
2019-03-24T00:29:40.856Z,0.83
2019-03-24T00:32:12.030Z,0.73
2019-03-24T00:34:43.189Z,0.90
2019-03-24T00:37:14.432Z,0.50
2019-03-24T00:39:45.506Z,0.70
2019-03-24T00:42:16.882Z,0.67
2019-03-24T00:44:48.110Z,0.80
2019-03-24T00:47:19.694Z,0.90
2019-03-24T00:49:50.869Z,0.73
2019-03-24T00:52:22.414Z,0.67
2019-03-24T00:54:53.858Z,0.80
2019-03-24T00:57:25.492Z,0.77
2019-03-24T00:59:57.141Z,0.70
2019-03-24T01:02:28.495Z,0.60
2019-03-24T01:04:59.662Z,0.67
2019-03-24T01:07:31.291Z,0.60
2019-03-24T01:10:02.917Z,0.80
2019-03-24T01:12:34.576Z,1.03
2019-03-24T01:15:07.631Z,0.63
2019-03-24T01:17:38.854Z,0.90
2019-03-24T01:20:10.542Z,0.77
2019-03-24T01:22:41.918Z,0.80
2019-03-24T01:25:13.410Z,0.70
2019-03-24T01:27:45.059Z,0.80
2019-03-24T01:30:16.842Z,0.60
2019-03-24T01:32:48.122Z,0.77
2019-03-24T01:35:19.562Z,0.70
2019-03-24T01:37:50.870Z,0.57
2019-03-24T01:40:22.462Z,0.60
2019-03-24T01:42:54.505Z,0.93
2019-03-24T01:45:25.979Z,0.57
2019-03-24T01:47:57.445Z,0.80
2019-03-24T01:50:28.574Z,0.50
2019-03-24T01:52:59.994Z,0.57
2019-03-24T01:55:31.466Z,0.50
2019-03-24T01:58:02.862Z,0.63
2019-03-24T02:00:34.239Z,0.53
2019-03-24T02:03:05.690Z,0.70
2019-03-24T02:05:37.242Z,0.60
2019-03-24T02:08:08.458Z,0.80
2019-03-24T02:10:39.762Z,0.50
2019-03-24T02:13:11.021Z,0.80
2019-03-24T02:15:42.700Z,0.67
2019-03-24T02:18:14.175Z,0.70
2019-03-24T02:20:45.867Z,0.60
2019-03-24T02:23:17.386Z,0.60
2019-03-24T02:25:48.698Z,0.40
2019-03-24T02:28:19.986Z,0.80
2019-03-24T02:30:51.207Z,0.70
2019-03-24T02:33:22.778Z,0.70
2019-03-24T02:35:53.887Z,0.63
2019-03-24T02:38:25.173Z,0.63
2019-03-24T02:40:56.421Z,0.80
2019-03-24T02:43:27.513Z,0.70
2019-03-24T02:45:59.191Z,0.60
2019-03-24T02:48:30.400Z,0.60
2019-03-24T02:51:01.667Z,0.70
2019-03-24T02:53:32.986Z,0.53
2019-03-24T02:56:04.671Z,0.73
2019-03-24T02:58:36.215Z,0.60
2019-03-24T03:01:07.422Z,0.57
2019-03-24T03:03:39.097Z,0.60
2019-03-24T03:06:10.766Z,0.80
2019-03-24T03:08:42.848Z,0.70
2019-03-24T03:11:14.494Z,0.60
2019-03-24T03:13:45.815Z,0.80
2019-03-24T03:16:17.644Z,0.60
2019-03-24T03:18:49.242Z,0.70
2019-03-24T03:21:20.553Z,0.70
2019-03-24T03:23:51.936Z,0.70
2019-03-24T03:26:23.175Z,0.60
2019-03-24T03:28:54.553Z,0.73
2019-03-24T03:31:26.024Z,0.70
2019-03-24T03:33:58.052Z,0.70
2019-03-24T03:36:30.469Z,0.80
2019-03-24T03:39:01.872Z,0.70
2019-03-24T03:41:33.383Z,0.77
2019-03-24T03:44:04.608Z,0.70
2019-03-24T03:46:35.939Z,0.90
2019-03-24T03:49:07.174Z,1.07
2019-03-24T03:51:38.548Z,0.70
2019-03-24T03:54:10.020Z,0.60
2019-03-24T03:56:41.182Z,0.70
2019-03-24T03:59:12.404Z,1.00
2019-03-24T04:01:44.056Z,0.57
2019-03-24T04:04:15.277Z,0.70
2019-03-24T04:06:46.536Z,0.97
2019-03-24T04:09:17.787Z,0.53
2019-03-24T04:11:49.201Z,0.70
2019-03-24T04:14:20.692Z,0.80
2019-03-24T04:17:05.742Z,0.70
2019-03-24T04:19:25.945Z,0.70
2019-03-24T04:21:57.419Z,0.77
2019-03-24T04:24:28.912Z,0.77
2019-03-24T04:27:00.381Z,0.90
2019-03-24T04:29:31.560Z,1.00
2019-03-24T04:32:02.709Z,0.80
2019-03-24T04:34:44.611Z,0.93
2019-03-24T04:37:15.780Z,1.23
2019-03-24T04:39:47.178Z,1.00
2019-03-24T04:42:18.332Z,1.20
2019-03-24T04:44:49.770Z,0.70
2019-03-24T04:47:20.949Z,0.90
2019-03-24T04:49:52.325Z,1.00
2019-03-24T04:52:23.587Z,1.03
2019-03-24T04:54:54.957Z,0.80
2019-03-24T04:57:26.447Z,0.80
2019-03-24T04:59:58.088Z,0.93
2019-03-24T05:02:29.835Z,0.80
2019-03-24T05:05:01.266Z,1.00
2019-03-24T05:07:33.102Z,0.70
2019-03-24T05:10:04.841Z,0.70
2019-03-24T05:12:36.113Z,0.80
2019-03-24T05:15:08.326Z,0.80
2019-03-24T05:17:39.928Z,1.10
2019-03-24T05:20:11.329Z,1.00
2019-03-24T05:22:42.803Z,0.90
2019-03-24T05:25:14.438Z,0.80
2019-03-24T05:27:45.991Z,1.10
2019-03-24T05:30:17.643Z,0.90
2019-03-24T05:32:49.002Z,0.87
2019-03-24T05:35:20.344Z,1.23
2019-03-24T05:37:51.837Z,0.90
2019-03-24T05:40:23.427Z,1.00
2019-03-24T05:42:54.720Z,0.93
2019-03-24T05:45:26.115Z,0.80
2019-03-24T05:47:57.656Z,0.90
2019-03-24T05:50:29.358Z,0.83
2019-03-24T05:53:00.547Z,0.90
2019-03-24T05:55:31.959Z,0.90
2019-03-24T05:58:04.616Z,0.93
2019-03-24T06:00:36.068Z,1.10
2019-03-24T06:03:07.518Z,0.63
2019-03-24T06:05:38.971Z,1.00
2019-03-24T06:08:10.442Z,0.90
2019-03-24T06:10:41.907Z,0.83
2019-03-24T06:13:13.638Z,0.80
2019-03-24T06:15:45.074Z,0.87
2019-03-24T06:18:16.526Z,0.70
2019-03-24T06:20:47.747Z,0.73
2019-03-24T06:23:18.943Z,0.83
2019-03-24T06:25:50.574Z,1.00
2019-03-24T06:28:21.782Z,0.80
2019-03-24T06:30:53.202Z,0.83
2019-03-24T06:33:24.364Z,0.80
2019-03-24T06:35:56.829Z,0.90
2019-03-24T06:38:28.689Z,0.50
2019-03-24T06:41:00.322Z,0.70
2019-03-24T06:43:31.381Z,1.00
2019-03-24T06:46:02.803Z,0.60
2019-03-24T06:48:34.035Z,0.77
2019-03-24T06:51:05.148Z,0.63
2019-03-24T06:53:36.458Z,0.60
2019-03-24T06:56:07.762Z,0.90
2019-03-24T06:58:39.170Z,1.00
2019-03-24T07:01:10.424Z,0.90
2019-03-24T07:03:41.850Z,0.70
2019-03-24T07:06:13.198Z,0.77
2019-03-24T07:08:44.390Z,0.60
2019-03-24T07:11:15.603Z,0.70
2019-03-24T07:13:46.751Z,0.83
2019-03-24T07:16:18.597Z,0.80
2019-03-24T07:18:50.829Z,0.60
2019-03-24T07:21:22.229Z,0.80
2019-03-24T07:23:53.672Z,0.60
2019-03-24T07:26:24.956Z,0.80
2019-03-24T07:28:56.037Z,0.70
2019-03-24T07:31:27.442Z,0.73
2019-03-24T07:33:58.754Z,0.90
2019-03-24T07:36:29.990Z,0.70
2019-03-24T07:39:01.452Z,0.60
2019-03-24T07:41:34.498Z,0.70
2019-03-24T07:44:05.670Z,0.70
2019-03-24T07:46:36.750Z,1.20
2019-03-24T07:49:08.178Z,1.13
2019-03-24T07:51:39.478Z,1.10
2019-03-24T07:54:10.498Z,0.70
2019-03-24T07:56:42.663Z,0.73
2019-03-24T07:59:14.045Z,0.93
2019-03-24T08:01:45.156Z,0.70
2019-03-24T08:04:16.811Z,0.93
2019-03-24T08:06:48.347Z,0.83
2019-03-24T08:09:19.514Z,0.80
2019-03-24T08:11:51.202Z,0.80
2019-03-24T08:14:22.692Z,0.93
2019-03-24T08:16:54.138Z,0.77
2019-03-24T08:19:25.373Z,0.57
2019-03-24T08:21:57.018Z,0.83
2019-03-24T08:24:28.354Z,0.80
2019-03-24T08:26:59.526Z,0.60
2019-03-24T08:29:30.782Z,0.90
2019-03-24T08:32:02.303Z,1.07
2019-03-24T08:34:33.453Z,1.07
2019-03-24T08:37:04.878Z,1.27
2019-03-24T08:39:36.310Z,1.23
2019-03-24T08:42:07.819Z,1.37
2019-03-24T08:44:39.192Z,1.30
2019-03-24T08:47:10.362Z,1.63
2019-03-24T08:49:41.684Z,1.80
2019-03-24T08:52:13.021Z,1.50
2019-03-24T08:54:44.652Z,1.90
2019-03-24T08:57:15.882Z,1.87
2019-03-24T08:59:47.250Z,2.10
2019-03-24T09:02:18.796Z,2.13
2019-03-24T09:04:50.422Z,2.00
2019-03-24T09:07:22.002Z,2.40
2019-03-24T09:09:53.290Z,2.23
2019-03-24T09:12:24.742Z,2.17
2019-03-24T09:14:56.034Z,2.00
2019-03-24T09:17:27.488Z,2.30
2019-03-24T09:20:00.446Z,2.77
2019-03-24T09:22:31.879Z,2.70
2019-03-24T09:25:03.130Z,2.00
2019-03-24T09:27:34.293Z,2.50
2019-03-24T09:30:06.530Z,2.50
2019-03-24T09:32:38.118Z,2.43
2019-03-24T09:35:10.298Z,2.90
2019-03-24T09:37:41.826Z,2.60
2019-03-24T09:40:18.506Z,2.30
2019-03-24T09:42:49.142Z,3.00
2019-03-24T09:45:20.302Z,2.90
2019-03-24T09:47:51.478Z,2.60
2019-03-24T09:50:22.774Z,2.90
2019-03-24T09:52:54.012Z,2.83
2019-03-24T09:55:25.106Z,2.77
2019-03-24T09:57:57.078Z,2.90
2019-03-24T10:00:28.621Z,2.53
2019-03-24T10:03:00.053Z,2.70
2019-03-24T10:05:31.219Z,2.83
2019-03-24T10:08:02.972Z,3.43
2019-03-24T10:10:34.486Z,2.73
2019-03-24T10:13:05.978Z,3.00
2019-03-24T10:15:37.678Z,2.97
2019-03-24T10:18:08.942Z,2.80
2019-03-24T10:20:40.354Z,2.83
2019-03-24T10:23:11.965Z,2.40
2019-03-24T10:25:43.674Z,3.17
2019-03-24T10:28:15.194Z,3.17
2019-03-24T10:30:46.880Z,2.73
2019-03-24T10:33:18.358Z,2.77
2019-03-24T10:35:49.838Z,2.65
2019-03-24T10:38:21.278Z,2.50
2019-03-24T10:40:53.258Z,2.50
2019-03-24T10:43:24.432Z,2.40
2019-03-24T10:45:56.061Z,2.40
2019-03-24T10:48:33.643Z,2.97
2019-03-24T10:51:01.022Z,2.80
2019-03-24T10:53:32.179Z,3.00
2019-03-24T10:56:03.811Z,3.07
2019-03-24T10:58:35.338Z,2.60
2019-03-24T11:01:06.567Z,2.97
2019-03-24T11:03:38.466Z,3.02
2019-03-24T11:06:09.938Z,2.83
2019-03-24T11:08:41.691Z,2.95
2019-03-24T11:11:13.643Z,3.12
2019-03-24T11:13:45.015Z,2.47
2019-03-24T11:16:16.255Z,2.90
2019-03-24T11:18:49.118Z,3.05
2019-03-24T11:21:20.625Z,3.20
2019-03-24T11:23:52.718Z,2.75
2019-03-24T11:26:24.106Z,3.00
2019-03-24T11:28:55.351Z,3.30
2019-03-24T11:31:26.485Z,2.75
2019-03-24T11:33:58.207Z,2.83
2019-03-24T11:36:29.786Z,2.70
2019-03-24T11:39:01.568Z,2.55
2019-03-24T11:41:34.865Z,2.40
2019-03-24T11:44:06.478Z,2.20
2019-03-24T11:46:37.890Z,1.92
2019-03-24T11:49:16.281Z,2.75
2019-03-24T11:51:47.913Z,2.70
2019-03-24T11:54:19.246Z,2.45
2019-03-24T11:56:50.487Z,2.20
2019-03-24T11:59:22.234Z,2.33
2019-03-24T12:01:53.977Z,2.67
2019-03-24T12:04:25.605Z,2.10
2019-03-24T12:06:57.132Z,2.30
2019-03-24T12:09:28.356Z,2.00
2019-03-24T12:11:59.478Z,1.87
2019-03-24T12:14:30.946Z,1.80
2019-03-24T12:17:02.114Z,1.87
2019-03-24T12:19:33.206Z,2.20
2019-03-24T12:22:04.459Z,1.87
2019-03-24T12:24:35.791Z,2.17
2019-03-24T12:27:07.294Z,1.80
2019-03-24T12:29:38.652Z,1.93
2019-03-24T12:32:09.956Z,1.80
2019-03-24T12:34:41.678Z,1.70
2019-03-24T12:37:12.827Z,1.67
2019-03-24T12:39:44.802Z,1.40
2019-03-24T12:42:16.316Z,1.60
2019-03-24T12:44:47.712Z,2.00
2019-03-24T12:47:19.242Z,1.90
2019-03-24T12:49:51.122Z,2.13
2019-03-24T12:52:22.702Z,1.73
2019-03-24T12:54:54.106Z,1.50
2019-03-24T12:57:25.789Z,1.50
2019-03-24T12:59:57.382Z,1.60
2019-03-24T13:02:28.550Z,1.37
2019-03-24T13:04:59.972Z,1.47
2019-03-24T13:07:31.366Z,1.50
2019-03-24T13:10:03.111Z,1.60
2019-03-24T13:12:35.753Z,1.70
2019-03-24T13:15:07.778Z,1.87
2019-03-24T13:17:39.547Z,1.70
2019-03-24T13:20:20.186Z,1.87
2019-03-24T13:22:44.426Z,1.93
2019-03-24T13:25:16.243Z,1.80
2019-03-24T13:27:47.891Z,1.47
2019-03-24T13:30:19.068Z,1.87
2019-03-24T13:32:50.754Z,1.60
2019-03-24T13:35:21.974Z,1.63
2019-03-24T13:37:54.375Z,1.63
2019-03-24T13:40:25.786Z,1.50
2019-03-24T13:42:57.202Z,1.57
2019-03-24T13:45:28.538Z,1.50
2019-03-24T13:48:00.404Z,1.80
2019-03-24T13:50:34.708Z,1.80
2019-03-24T13:53:06.188Z,1.60
2019-03-24T13:55:37.575Z,1.70
2019-03-24T13:58:11.775Z,1.33
2019-03-24T14:00:42.509Z,1.30
2019-03-24T14:03:15.243Z,1.60
2019-03-24T14:05:46.742Z,1.60
2019-03-24T14:08:18.533Z,1.57
2019-03-24T14:10:49.922Z,1.67
2019-03-24T14:13:21.244Z,1.50
2019-03-24T14:15:52.522Z,1.80
2019-03-24T14:18:23.775Z,1.67
2019-03-24T14:20:55.298Z,1.40
2019-03-24T14:23:26.916Z,1.87
2019-03-24T14:25:58.122Z,1.73
2019-03-24T14:28:29.571Z,1.40
2019-03-24T14:31:01.454Z,1.30
2019-03-24T14:33:35.380Z,1.57
2019-03-24T14:36:08.146Z,1.30
2019-03-24T14:38:39.779Z,1.60
2019-03-24T14:41:11.094Z,1.47
2019-03-24T14:43:43.086Z,1.30
2019-03-24T14:46:14.794Z,1.53
2019-03-24T14:48:46.147Z,1.17
2019-03-24T14:51:17.275Z,1.40
2019-03-24T14:53:48.448Z,1.53
2019-03-24T14:56:19.734Z,1.30
2019-03-24T14:58:51.234Z,1.60
2019-03-24T15:01:22.872Z,1.30
2019-03-24T15:03:54.188Z,1.67
2019-03-24T15:06:25.782Z,1.20
2019-03-24T15:08:57.411Z,1.30
2019-03-24T15:11:29.386Z,1.20
2019-03-24T15:14:00.946Z,1.53
2019-03-24T15:16:32.022Z,1.53
2019-03-24T15:19:03.246Z,1.30
2019-03-24T15:21:34.592Z,1.30
2019-03-24T15:24:06.356Z,1.57
2019-03-24T15:26:38.112Z,1.63
2019-03-24T15:29:09.277Z,1.30
2019-03-24T15:31:40.718Z,2.07
2019-03-24T15:34:12.182Z,1.60
2019-03-24T15:36:43.388Z,1.33
2019-03-24T15:39:14.898Z,1.33
2019-03-24T15:41:46.510Z,1.10
2019-03-24T15:44:17.954Z,1.50
2019-03-24T15:46:49.134Z,1.20
2019-03-24T15:49:20.560Z,1.37
2019-03-24T15:51:51.809Z,1.30
2019-03-24T15:54:23.817Z,1.20
2019-03-24T15:56:55.258Z,1.40
2019-03-24T15:59:26.663Z,1.73
2019-03-24T16:01:58.042Z,1.20
2019-03-24T16:04:29.882Z,1.13
2019-03-24T16:07:01.324Z,1.30
2019-03-24T16:09:32.999Z,1.10
2019-03-24T16:12:04.555Z,1.13
2019-03-24T16:14:35.753Z,1.20
2019-03-24T16:17:07.278Z,1.17
2019-03-24T16:19:38.618Z,1.07
2019-03-24T16:22:10.063Z,1.20
2019-03-24T16:24:41.312Z,1.10
2019-03-24T16:27:12.651Z,0.90
2019-03-24T16:29:44.170Z,1.13
2019-03-24T16:32:16.576Z,1.20
2019-03-24T16:34:48.152Z,1.20
2019-03-24T16:37:19.287Z,1.23
2019-03-24T16:39:50.555Z,1.40
2019-03-24T16:42:21.986Z,1.10
2019-03-24T16:44:53.126Z,1.20
2019-03-24T16:47:24.687Z,1.20
2019-03-24T16:49:57.082Z,1.10
2019-03-24T16:52:28.159Z,1.20
2019-03-24T16:54:59.544Z,1.20
2019-03-24T16:57:31.302Z,1.30
2019-03-24T17:00:02.811Z,1.50
2019-03-24T17:02:34.618Z,1.00
2019-03-24T17:05:07.520Z,1.20
2019-03-24T17:07:38.998Z,1.10
2019-03-24T17:10:10.616Z,1.67
2019-03-24T17:12:43.261Z,1.50
2019-03-24T17:15:15.945Z,1.43
2019-03-24T17:17:48.033Z,1.30
2019-03-24T17:20:19.341Z,1.80
2019-03-24T17:22:50.628Z,1.30
2019-03-24T17:25:21.919Z,1.40
2019-03-24T17:27:53.335Z,1.13
2019-03-24T17:30:24.770Z,1.00
2019-03-24T17:32:56.271Z,1.23
2019-03-24T17:35:27.412Z,1.20
2019-03-24T17:37:59.097Z,1.43
2019-03-24T17:40:30.306Z,1.30
2019-03-24T17:43:02.094Z,1.20
2019-03-24T17:45:33.782Z,1.40
2019-03-24T17:48:06.283Z,1.50
2019-03-24T17:50:37.687Z,1.50
2019-03-24T17:53:09.447Z,1.30
2019-03-24T17:55:41.150Z,1.43
2019-03-24T17:58:13.222Z,1.30
2019-03-24T18:00:48.091Z,1.37
2019-03-24T18:03:19.273Z,1.73
2019-03-24T18:05:51.251Z,1.50
2019-03-24T18:08:22.461Z,1.60
2019-03-24T18:10:54.331Z,1.60
2019-03-24T18:13:25.723Z,1.47
2019-03-24T18:15:57.136Z,1.80
2019-03-24T18:18:28.534Z,1.50
2019-03-24T18:20:59.715Z,1.30
2019-03-24T18:23:30.794Z,1.50
2019-03-24T18:26:02.007Z,1.60
2019-03-24T18:28:33.403Z,1.90
2019-03-24T18:31:05.065Z,1.60
2019-03-24T18:33:36.294Z,1.67
2019-03-24T18:36:08.002Z,1.50
2019-03-24T18:38:39.518Z,1.70
2019-03-24T18:41:10.894Z,1.50
2019-03-24T18:43:42.270Z,1.77
2019-03-24T18:46:13.575Z,2.07
2019-03-24T18:48:50.280Z,1.63
2019-03-24T18:51:33.659Z,1.60
2019-03-24T18:54:05.370Z,2.10
2019-03-24T18:56:38.148Z,1.70
2019-03-24T18:59:09.757Z,1.50
2019-03-24T19:01:41.198Z,1.80
2019-03-24T19:04:12.761Z,1.97
2019-03-24T19:06:44.019Z,2.10
2019-03-24T19:09:15.070Z,1.90
2019-03-24T19:11:46.498Z,2.07
2019-03-24T19:14:17.983Z,2.20
2019-03-24T19:16:49.508Z,2.10
2019-03-24T19:19:20.687Z,2.07
2019-03-24T19:21:52.550Z,1.93
2019-03-24T19:24:24.351Z,1.40
2019-03-24T19:26:56.142Z,1.90
2019-03-24T19:29:27.386Z,2.00
2019-03-24T19:31:59.053Z,2.13
2019-03-24T19:34:40.964Z,2.00
2019-03-24T19:37:13.095Z,1.90
2019-03-24T19:39:44.465Z,1.60
2019-03-24T19:42:15.870Z,2.07
2019-03-24T19:44:47.078Z,2.00
2019-03-24T19:47:18.513Z,2.20
2019-03-24T19:49:49.959Z,1.83
2019-03-24T19:52:21.154Z,2.13
2019-03-24T19:54:52.563Z,1.63
2019-03-24T19:57:24.029Z,2.07
2019-03-24T19:59:58.757Z,2.57
2019-03-24T20:02:30.270Z,2.03
2019-03-24T20:05:01.651Z,1.90
2019-03-24T20:07:33.381Z,2.13
2019-03-24T20:10:05.636Z,1.80
2019-03-24T20:12:39.134Z,1.77
2019-03-24T20:15:10.614Z,1.90
2019-03-24T20:17:42.369Z,2.67
2019-03-24T20:20:13.891Z,2.07
2019-03-24T20:22:55.579Z,2.03
2019-03-24T20:25:18.183Z,1.83
2019-03-24T20:27:49.778Z,1.87
2019-03-24T20:30:21.190Z,2.23
2019-03-24T20:32:52.506Z,2.47
2019-03-24T20:35:24.071Z,1.80
2019-03-24T20:37:55.407Z,1.60
2019-03-24T20:40:27.019Z,2.10
2019-03-24T20:42:58.420Z,1.53
2019-03-24T20:45:29.861Z,2.20
2019-03-24T20:48:01.318Z,1.70
2019-03-24T20:50:34.317Z,2.00
2019-03-24T20:53:17.516Z,1.80
2019-03-24T20:55:39.405Z,1.90
2019-03-24T20:58:10.832Z,2.67
2019-03-24T21:00:42.250Z,1.73
2019-03-24T21:03:14.215Z,2.30
2019-03-24T21:05:45.798Z,2.27
2019-03-24T21:08:17.943Z,2.00
2019-03-24T21:10:49.314Z,2.07
2019-03-24T21:13:20.993Z,1.73
2019-03-24T21:15:52.314Z,2.33
2019-03-24T21:18:23.846Z,1.67
2019-03-24T21:20:55.176Z,2.40
2019-03-24T21:23:29.775Z,2.10
2019-03-24T21:25:59.597Z,1.93
2019-03-24T21:28:30.716Z,1.83
2019-03-24T21:31:02.667Z,2.03
2019-03-24T21:33:34.169Z,2.00
2019-03-24T21:36:05.892Z,1.87
2019-03-24T21:38:37.202Z,2.10
2019-03-24T21:41:08.918Z,1.90
2019-03-24T21:43:40.142Z,1.90
2019-03-24T21:46:11.668Z,1.73
2019-03-24T21:48:43.482Z,2.70
2019-03-24T21:51:14.706Z,2.37
2019-03-24T21:53:46.034Z,1.67
2019-03-24T21:56:17.559Z,1.77
2019-03-24T21:58:48.803Z,2.27
2019-03-24T22:01:20.228Z,2.03
2019-03-24T22:03:51.824Z,1.70
2019-03-24T22:06:23.701Z,2.40
2019-03-24T22:08:55.340Z,2.30
2019-03-24T22:11:26.721Z,1.80
2019-03-24T22:13:58.282Z,1.77
2019-03-24T22:16:29.779Z,2.20
2019-03-24T22:19:01.277Z,2.37
2019-03-24T22:21:32.750Z,2.00
2019-03-24T22:24:04.019Z,2.30
2019-03-24T22:26:35.618Z,2.10
2019-03-24T22:29:06.855Z,1.90
2019-03-24T22:31:38.717Z,2.77
2019-03-24T22:34:10.538Z,2.13
2019-03-24T22:36:41.812Z,1.73
2019-03-24T22:39:13.164Z,1.70
2019-03-24T22:41:44.636Z,2.20
2019-03-24T22:44:16.169Z,1.80
2019-03-24T22:46:47.516Z,1.93
2019-03-24T22:49:19.040Z,2.00
2019-03-24T22:51:50.402Z,2.33
2019-03-24T22:54:21.810Z,1.90
2019-03-24T22:56:53.567Z,2.00
2019-03-24T22:59:25.730Z,2.00
2019-03-24T23:01:56.879Z,2.00
2019-03-24T23:04:29.540Z,2.07
2019-03-24T23:07:01.618Z,2.27
2019-03-24T23:09:33.448Z,2.30
2019-03-24T23:12:05.326Z,2.10
2019-03-24T23:14:36.918Z,1.70
2019-03-24T23:17:08.086Z,2.23
2019-03-24T23:19:39.804Z,1.90
2019-03-24T23:22:11.009Z,2.07
2019-03-24T23:24:42.146Z,1.97
2019-03-24T23:27:13.259Z,2.37
2019-03-24T23:29:44.751Z,1.83
2019-03-24T23:32:16.102Z,1.90
2019-03-24T23:34:47.562Z,2.20
2019-03-24T23:37:18.846Z,1.90
2019-03-24T23:39:50.162Z,2.00
2019-03-24T23:42:22.163Z,2.13
2019-03-24T23:44:53.530Z,2.17
2019-03-24T23:47:24.552Z,2.10
2019-03-24T23:49:55.954Z,2.13
2019-03-24T23:52:27.392Z,1.83
2019-03-24T23:54:58.603Z,2.13
2019-03-24T23:57:29.854Z,1.87
